sensor_id;sensor_type;location;lat;lon;timestamp;temperature;humidity
6110;DHT22;3085;49.444;11.054;2023-02-12T00:01:15;5.50;99.90
6110;DHT22;3085;49.444;11.054;2023-02-12T00:03:43;5.60;99.90
6110;DHT22;3085;49.444;11.054;2023-02-12T00:06:10;5.60;99.90
6110;DHT22;3085;49.444;11.054;2023-02-12T00:08:38;5.60;99.90
6110;DHT22;3085;49.444;11.054;2023-02-12T00:11:10;5.60;99.90
6110;DHT22;3085;49.444;11.054;2023-02-12T00:13:37;5.50;99.90
6110;DHT22;3085;49.444;11.054;2023-02-12T00:16:05;5.40;99.90
6110;DHT22;3085;49.444;11.054;2023-02-12T00:18:34;5.40;99.90
6110;DHT22;3085;49.444;11.054;2023-02-12T00:21:01;5.40;99.90
6110;DHT22;3085;49.444;11.054;2023-02-12T00:23:28;5.40;99.90
6110;DHT22;3085;49.444;11.054;2023-02-12T00:25:55;5.50;99.90
6110;DHT22;3085;49.444;11.054;2023-02-12T00:28:22;5.50;99.90
6110;DHT22;3085;49.444;11.054;2023-02-12T00:30:48;5.50;99.90
6110;DHT22;3085;49.444;11.054;2023-02-12T00:33:15;5.50;99.90
6110;DHT22;3085;49.444;11.054;2023-02-12T00:35:44;5.60;99.90
6110;DHT22;3085;49.444;11.054;2023-02-12T00:38:10;5.40;99.90
6110;DHT22;3085;49.444;11.054;2023-02-12T00:40:37;5.40;99.90
6110;DHT22;3085;49.444;11.054;2023-02-12T00:43:04;5.40;99.90
6110;DHT22;3085;49.444;11.054;2023-02-12T00:45:31;5.40;99.90
6110;DHT22;3085;49.444;11.054;2023-02-12T00:47:58;5.40;99.90
6110;DHT22;3085;49.444;11.054;2023-02-12T00:50:25;5.40;99.90
6110;DHT22;3085;49.444;11.054;2023-02-12T00:52:53;5.40;99.90
6110;DHT22;3085;49.444;11.054;2023-02-12T00:55:20;5.50;99.90
6110;DHT22;3085;49.444;11.054;2023-02-12T00:57:47;5.50;99.90
6110;DHT22;3085;49.444;11.054;2023-02-12T01:00:15;5.70;99.90
6110;DHT22;3085;49.444;11.054;2023-02-12T01:02:42;5.40;99.90
6110;DHT22;3085;49.444;11.054;2023-02-12T01:05:08;5.40;99.90
6110;DHT22;3085;49.444;11.054;2023-02-12T01:07:35;5.50;99.90
6110;DHT22;3085;49.444;11.054;2023-02-12T01:10:05;5.50;99.90
6110;DHT22;3085;49.444;11.054;2023-02-12T01:12:32;5.50;99.90
6110;DHT22;3085;49.444;11.054;2023-02-12T01:14:59;5.50;99.90
6110;DHT22;3085;49.444;11.054;2023-02-12T01:17:26;5.40;99.90
6110;DHT22;3085;49.444;11.054;2023-02-12T01:19:56;5.40;99.90
6110;DHT22;3085;49.444;11.054;2023-02-12T01:22:24;5.40;99.90
6110;DHT22;3085;49.444;11.054;2023-02-12T01:24:51;5.40;99.90
6110;DHT22;3085;49.444;11.054;2023-02-12T01:27:19;5.60;99.90
6110;DHT22;3085;49.444;11.054;2023-02-12T01:29:45;5.80;99.90
6110;DHT22;3085;49.444;11.054;2023-02-12T01:32:12;5.60;99.90
6110;DHT22;3085;49.444;11.054;2023-02-12T01:34:39;5.40;99.90
6110;DHT22;3085;49.444;11.054;2023-02-12T01:37:06;5.50;99.90
6110;DHT22;3085;49.444;11.054;2023-02-12T01:39:33;5.50;99.90
6110;DHT22;3085;49.444;11.054;2023-02-12T01:42:00;5.50;99.90
6110;DHT22;3085;49.444;11.054;2023-02-12T01:44:30;5.60;99.90
6110;DHT22;3085;49.444;11.054;2023-02-12T01:46:59;5.50;99.90
6110;DHT22;3085;49.444;11.054;2023-02-12T01:49:29;5.50;99.90
6110;DHT22;3085;49.444;11.054;2023-02-12T01:52:00;5.50;99.90
6110;DHT22;3085;49.444;11.054;2023-02-12T01:54:28;5.50;99.90
6110;DHT22;3085;49.444;11.054;2023-02-12T01:56:55;5.50;99.90
6110;DHT22;3085;49.444;11.054;2023-02-12T01:59:23;5.40;99.90
6110;DHT22;3085;49.444;11.054;2023-02-12T02:01:52;5.50;99.90
6110;DHT22;3085;49.444;11.054;2023-02-12T02:04:22;5.50;99.90
6110;DHT22;3085;49.444;11.054;2023-02-12T02:06:52;5.50;99.90
6110;DHT22;3085;49.444;11.054;2023-02-12T02:09:21;5.50;99.90
6110;DHT22;3085;49.444;11.054;2023-02-12T02:11:48;5.40;99.90
6110;DHT22;3085;49.444;11.054;2023-02-12T02:14:33;5.30;99.90
6110;DHT22;3085;49.444;11.054;2023-02-12T02:17:19;5.40;99.90
6110;DHT22;3085;49.444;11.054;2023-02-12T02:22:50;5.40;99.90
6110;DHT22;3085;49.444;11.054;2023-02-12T02:25:51;5.60;99.90
6110;DHT22;3085;49.444;11.054;2023-02-12T02:28:39;5.40;99.90
6110;DHT22;3085;49.444;11.054;2023-02-12T02:31:15;5.40;99.90
6110;DHT22;3085;49.444;11.054;2023-02-12T02:33:49;5.50;99.90
6110;DHT22;3085;49.444;11.054;2023-02-12T02:36:24;5.40;99.90
6110;DHT22;3085;49.444;11.054;2023-02-12T02:38:55;5.50;99.90
6110;DHT22;3085;49.444;11.054;2023-02-12T02:41:28;5.50;99.90
6110;DHT22;3085;49.444;11.054;2023-02-12T02:43:57;5.40;99.90
6110;DHT22;3085;49.444;11.054;2023-02-12T02:46:29;5.40;99.90
6110;DHT22;3085;49.444;11.054;2023-02-12T02:48:59;5.50;99.90
6110;DHT22;3085;49.444;11.054;2023-02-12T02:51:29;5.50;99.90
6110;DHT22;3085;49.444;11.054;2023-02-12T02:54:03;5.50;99.90
6110;DHT22;3085;49.444;11.054;2023-02-12T02:56:34;5.50;99.90
6110;DHT22;3085;49.444;11.054;2023-02-12T02:59:04;7.00;99.90
6110;DHT22;3085;49.444;11.054;2023-02-12T03:01:40;5.60;99.90
6110;DHT22;3085;49.444;11.054;2023-02-12T03:04:11;5.50;99.90
6110;DHT22;3085;49.444;11.054;2023-02-12T03:06:45;5.50;99.90
6110;DHT22;3085;49.444;11.054;2023-02-12T03:09:17;5.50;99.90
6110;DHT22;3085;49.444;11.054;2023-02-12T03:11:46;5.50;99.90
6110;DHT22;3085;49.444;11.054;2023-02-12T03:14:19;5.40;99.90
6110;DHT22;3085;49.444;11.054;2023-02-12T03:16:53;5.50;99.90
6110;DHT22;3085;49.444;11.054;2023-02-12T03:19:24;5.50;99.90
6110;DHT22;3085;49.444;11.054;2023-02-12T03:21:57;5.50;99.90
6110;DHT22;3085;49.444;11.054;2023-02-12T03:24:30;5.50;99.90
6110;DHT22;3085;49.444;11.054;2023-02-12T03:27:03;5.40;99.90
6110;DHT22;3085;49.444;11.054;2023-02-12T03:29:32;5.40;99.90
6110;DHT22;3085;49.444;11.054;2023-02-12T03:32:11;6.00;99.90
6110;DHT22;3085;49.444;11.054;2023-02-12T03:34:46;5.30;99.90
6110;DHT22;3085;49.444;11.054;2023-02-12T03:37:20;5.30;99.90
6110;DHT22;3085;49.444;11.054;2023-02-12T03:39:53;5.60;99.90
6110;DHT22;3085;49.444;11.054;2023-02-12T03:42:30;5.40;99.90
6110;DHT22;3085;49.444;11.054;2023-02-12T03:45:03;6.00;99.90
6110;DHT22;3085;49.444;11.054;2023-02-12T03:47:40;5.40;99.90
6110;DHT22;3085;49.444;11.054;2023-02-12T03:50:14;5.50;99.90
6110;DHT22;3085;49.444;11.054;2023-02-12T03:52:44;5.40;99.90
6110;DHT22;3085;49.444;11.054;2023-02-12T03:55:12;5.60;99.90
6110;DHT22;3085;49.444;11.054;2023-02-12T03:57:45;5.30;99.90
6110;DHT22;3085;49.444;11.054;2023-02-12T04:00:17;5.50;99.90
6110;DHT22;3085;49.444;11.054;2023-02-12T04:02:46;5.40;99.90
6110;DHT22;3085;49.444;11.054;2023-02-12T04:05:18;6.50;99.90
6110;DHT22;3085;49.444;11.054;2023-02-12T04:07:46;5.30;99.90
6110;DHT22;3085;49.444;11.054;2023-02-12T04:10:13;5.40;99.90
6110;DHT22;3085;49.444;11.054;2023-02-12T04:12:45;5.30;99.90
6110;DHT22;3085;49.444;11.054;2023-02-12T04:15:36;6.20;99.90
6110;DHT22;3085;49.444;11.054;2023-02-12T04:18:12;5.30;99.90
6110;DHT22;3085;49.444;11.054;2023-02-12T04:20:49;5.20;99.90
6110;DHT22;3085;49.444;11.054;2023-02-12T04:23:29;5.90;99.90
6110;DHT22;3085;49.444;11.054;2023-02-12T04:26:08;6.60;99.90
6110;DHT22;3085;49.444;11.054;2023-02-12T04:28:45;6.30;99.90
6110;DHT22;3085;49.444;11.054;2023-02-12T04:31:23;5.80;99.90
6110;DHT22;3085;49.444;11.054;2023-02-12T04:34:07;5.40;99.90
6110;DHT22;3085;49.444;11.054;2023-02-12T04:36:40;5.40;99.90
6110;DHT22;3085;49.444;11.054;2023-02-12T04:39:17;5.20;99.90
6110;DHT22;3085;49.444;11.054;2023-02-12T04:41:46;5.30;99.90
6110;DHT22;3085;49.444;11.054;2023-02-12T04:44:15;6.60;99.90
6110;DHT22;3085;49.444;11.054;2023-02-12T04:46:43;4.20;99.90
6110;DHT22;3085;49.444;11.054;2023-02-12T04:49:15;6.80;99.90
6110;DHT22;3085;49.444;11.054;2023-02-12T04:51:43;5.50;99.90
6110;DHT22;3085;49.444;11.054;2023-02-12T04:54:12;5.30;99.90
6110;DHT22;3085;49.444;11.054;2023-02-12T04:56:39;6.90;99.90
6110;DHT22;3085;49.444;11.054;2023-02-12T04:59:07;5.40;99.90
6110;DHT22;3085;49.444;11.054;2023-02-12T05:01:36;5.50;99.90
6110;DHT22;3085;49.444;11.054;2023-02-12T05:04:05;5.50;99.90
6110;DHT22;3085;49.444;11.054;2023-02-12T05:06:37;5.40;99.90
6110;DHT22;3085;49.444;11.054;2023-02-12T05:09:05;5.50;99.90
6110;DHT22;3085;49.444;11.054;2023-02-12T05:11:33;6.70;99.90
6110;DHT22;3085;49.444;11.054;2023-02-12T05:14:04;6.40;99.90
6110;DHT22;3085;49.444;11.054;2023-02-12T05:16:31;6.40;99.90
6110;DHT22;3085;49.444;11.054;2023-02-12T05:18:59;5.40;99.90
6110;DHT22;3085;49.444;11.054;2023-02-12T05:21:26;4.20;99.90
6110;DHT22;3085;49.444;11.054;2023-02-12T05:23:54;5.30;99.90
6110;DHT22;3085;49.444;11.054;2023-02-12T05:26:22;6.10;99.90
6110;DHT22;3085;49.444;11.054;2023-02-12T05:28:49;5.20;99.90
6110;DHT22;3085;49.444;11.054;2023-02-12T05:31:17;6.40;99.90
6110;DHT22;3085;49.444;11.054;2023-02-12T05:33:49;5.50;99.90
6110;DHT22;3085;49.444;11.054;2023-02-12T05:36:17;5.00;99.90
6110;DHT22;3085;49.444;11.054;2023-02-12T05:38:45;5.40;99.90
6110;DHT22;3085;49.444;11.054;2023-02-12T05:41:15;6.00;99.90
6110;DHT22;3085;49.444;11.054;2023-02-12T05:43:43;5.50;99.90
6110;DHT22;3085;49.444;11.054;2023-02-12T05:46:13;5.50;99.90
6110;DHT22;3085;49.444;11.054;2023-02-12T05:48:41;5.40;99.90
6110;DHT22;3085;49.444;11.054;2023-02-12T05:51:10;5.40;99.90
6110;DHT22;3085;49.444;11.054;2023-02-12T05:53:39;6.90;99.90
6110;DHT22;3085;49.444;11.054;2023-02-12T05:56:14;6.20;99.90
6110;DHT22;3085;49.444;11.054;2023-02-12T05:58:44;5.50;99.90
6110;DHT22;3085;49.444;11.054;2023-02-12T06:01:14;6.80;99.90
6110;DHT22;3085;49.444;11.054;2023-02-12T06:03:42;7.10;99.90
6110;DHT22;3085;49.444;11.054;2023-02-12T06:06:13;6.50;99.90
6110;DHT22;3085;49.444;11.054;2023-02-12T06:08:40;6.40;99.90
6110;DHT22;3085;49.444;11.054;2023-02-12T06:11:11;6.50;99.90
6110;DHT22;3085;49.444;11.054;2023-02-12T06:13:47;5.40;99.90
6110;DHT22;3085;49.444;11.054;2023-02-12T06:16:19;5.50;99.90
6110;DHT22;3085;49.444;11.054;2023-02-12T06:18:51;5.70;99.90
6110;DHT22;3085;49.444;11.054;2023-02-12T06:21:20;6.20;99.90
6110;DHT22;3085;49.444;11.054;2023-02-12T06:23:48;5.50;99.90
6110;DHT22;3085;49.444;11.054;2023-02-12T06:26:16;5.50;99.90
6110;DHT22;3085;49.444;11.054;2023-02-12T06:28:46;5.30;99.90
6110;DHT22;3085;49.444;11.054;2023-02-12T06:31:18;5.40;99.90
6110;DHT22;3085;49.444;11.054;2023-02-12T06:33:45;5.50;99.90
6110;DHT22;3085;49.444;11.054;2023-02-12T06:36:12;5.40;99.90
6110;DHT22;3085;49.444;11.054;2023-02-12T06:38:40;6.50;99.90
6110;DHT22;3085;49.444;11.054;2023-02-12T06:41:07;6.30;99.90
6110;DHT22;3085;49.444;11.054;2023-02-12T06:43:35;5.30;99.90
6110;DHT22;3085;49.444;11.054;2023-02-12T06:46:07;5.30;99.90
6110;DHT22;3085;49.444;11.054;2023-02-12T06:48:36;6.40;99.90
6110;DHT22;3085;49.444;11.054;2023-02-12T06:51:05;5.60;99.90
6110;DHT22;3085;49.444;11.054;2023-02-12T06:53:33;3.90;99.90
6110;DHT22;3085;49.444;11.054;2023-02-12T06:56:01;6.40;99.90
6110;DHT22;3085;49.444;11.054;2023-02-12T06:58:30;6.40;99.90
6110;DHT22;3085;49.444;11.054;2023-02-12T07:01:10;5.20;99.90
6110;DHT22;3085;49.444;11.054;2023-02-12T07:03:40;6.40;99.90
6110;DHT22;3085;49.444;11.054;2023-02-12T07:06:08;6.90;99.90
6110;DHT22;3085;49.444;11.054;2023-02-12T07:08:45;5.40;99.90
6110;DHT22;3085;49.444;11.054;2023-02-12T07:11:18;6.70;99.90
6110;DHT22;3085;49.444;11.054;2023-02-12T07:13:52;4.70;99.90
6110;DHT22;3085;49.444;11.054;2023-02-12T07:16:24;4.40;99.90
6110;DHT22;3085;49.444;11.054;2023-02-12T07:18:52;5.40;99.90
6110;DHT22;3085;49.444;11.054;2023-02-12T07:21:22;5.40;99.90
6110;DHT22;3085;49.444;11.054;2023-02-12T07:23:51;6.60;99.90
6110;DHT22;3085;49.444;11.054;2023-02-12T07:26:19;4.70;99.90
6110;DHT22;3085;49.444;11.054;2023-02-12T07:28:47;5.30;99.90
6110;DHT22;3085;49.444;11.054;2023-02-12T07:31:16;5.50;99.90
6110;DHT22;3085;49.444;11.054;2023-02-12T07:33:45;5.50;99.90
6110;DHT22;3085;49.444;11.054;2023-02-12T07:36:18;6.10;99.90
6110;DHT22;3085;49.444;11.054;2023-02-12T07:38:46;7.10;99.90
6110;DHT22;3085;49.444;11.054;2023-02-12T07:41:15;5.60;99.90
6110;DHT22;3085;49.444;11.054;2023-02-12T07:43:45;5.60;99.90
6110;DHT22;3085;49.444;11.054;2023-02-12T07:46:15;7.20;99.90
6110;DHT22;3085;49.444;11.054;2023-02-12T07:48:44;5.50;99.90
6110;DHT22;3085;49.444;11.054;2023-02-12T07:51:14;6.40;99.90
6110;DHT22;3085;49.444;11.054;2023-02-12T07:53:44;6.20;99.90
6110;DHT22;3085;49.444;11.054;2023-02-12T07:56:13;5.40;99.90
6110;DHT22;3085;49.444;11.054;2023-02-12T07:58:41;5.40;99.90
6110;DHT22;3085;49.444;11.054;2023-02-12T08:01:16;6.10;99.90
6110;DHT22;3085;49.444;11.054;2023-02-12T08:03:45;6.00;99.90
6110;DHT22;3085;49.444;11.054;2023-02-12T08:06:15;5.50;99.90
6110;DHT22;3085;49.444;11.054;2023-02-12T08:08:44;5.70;99.90
6110;DHT22;3085;49.444;11.054;2023-02-12T08:11:12;6.50;99.90
6110;DHT22;3085;49.444;11.054;2023-02-12T08:13:41;6.70;99.90
6110;DHT22;3085;49.444;11.054;2023-02-12T08:16:10;5.80;99.90
6110;DHT22;3085;49.444;11.054;2023-02-12T08:18:42;5.70;99.90
6110;DHT22;3085;49.444;11.054;2023-02-12T08:21:14;4.70;99.90
6110;DHT22;3085;49.444;11.054;2023-02-12T08:23:45;4.50;99.90
6110;DHT22;3085;49.444;11.054;2023-02-12T08:26:17;5.70;99.90
6110;DHT22;3085;49.444;11.054;2023-02-12T08:28:46;5.80;99.90
6110;DHT22;3085;49.444;11.054;2023-02-12T08:31:15;7.40;99.90
6110;DHT22;3085;49.444;11.054;2023-02-12T08:33:44;5.90;99.90
6110;DHT22;3085;49.444;11.054;2023-02-12T08:36:15;6.00;99.90
6110;DHT22;3085;49.444;11.054;2023-02-12T08:38:43;6.90;99.90
6110;DHT22;3085;49.444;11.054;2023-02-12T08:41:12;6.50;99.90
6110;DHT22;3085;49.444;11.054;2023-02-12T08:43:40;5.20;99.90
6110;DHT22;3085;49.444;11.054;2023-02-12T08:46:09;7.30;99.90
6110;DHT22;3085;49.444;11.054;2023-02-12T08:48:36;6.30;99.90
6110;DHT22;3085;49.444;11.054;2023-02-12T08:51:06;6.40;99.90
6110;DHT22;3085;49.444;11.054;2023-02-12T08:53:35;6.30;99.90
6110;DHT22;3085;49.444;11.054;2023-02-12T08:56:03;6.40;99.90
6110;DHT22;3085;49.444;11.054;2023-02-12T08:58:30;6.50;99.90
6110;DHT22;3085;49.444;11.054;2023-02-12T09:00:57;6.50;99.90
6110;DHT22;3085;49.444;11.054;2023-02-12T09:03:24;6.50;99.90
6110;DHT22;3085;49.444;11.054;2023-02-12T09:05:52;6.50;99.90
6110;DHT22;3085;49.444;11.054;2023-02-12T09:08:21;6.50;99.90
6110;DHT22;3085;49.444;11.054;2023-02-12T09:10:50;6.50;99.90
6110;DHT22;3085;49.444;11.054;2023-02-12T09:13:17;7.50;99.90
6110;DHT22;3085;49.444;11.054;2023-02-12T09:15:44;6.50;99.90
6110;DHT22;3085;49.444;11.054;2023-02-12T09:18:13;6.70;99.90
6110;DHT22;3085;49.444;11.054;2023-02-12T09:20:42;6.60;99.90
6110;DHT22;3085;49.444;11.054;2023-02-12T09:23:11;6.60;99.90
6110;DHT22;3085;49.444;11.054;2023-02-12T09:25:39;6.50;99.90
6110;DHT22;3085;49.444;11.054;2023-02-12T09:28:08;6.50;99.90
6110;DHT22;3085;49.444;11.054;2023-02-12T09:30:36;6.60;99.90
6110;DHT22;3085;49.444;11.054;2023-02-12T09:33:04;6.60;99.90
6110;DHT22;3085;49.444;11.054;2023-02-12T09:35:33;6.70;99.90
6110;DHT22;3085;49.444;11.054;2023-02-12T09:38:00;6.70;99.90
6110;DHT22;3085;49.444;11.054;2023-02-12T09:40:32;6.80;99.90
6110;DHT22;3085;49.444;11.054;2023-02-12T09:43:14;7.20;99.90
6110;DHT22;3085;49.444;11.054;2023-02-12T09:45:49;7.20;99.90
6110;DHT22;3085;49.444;11.054;2023-02-12T09:48:38;6.60;99.90
6110;DHT22;3085;49.444;11.054;2023-02-12T09:51:09;6.50;99.90
6110;DHT22;3085;49.444;11.054;2023-02-12T09:53:40;6.50;99.90
6110;DHT22;3085;49.444;11.054;2023-02-12T09:56:14;6.40;99.90
6110;DHT22;3085;49.444;11.054;2023-02-12T09:58:46;6.30;99.90
6110;DHT22;3085;49.444;11.054;2023-02-12T10:01:17;6.30;99.90
6110;DHT22;3085;49.444;11.054;2023-02-12T10:03:45;6.40;99.90
6110;DHT22;3085;49.444;11.054;2023-02-12T10:06:15;6.50;99.90
6110;DHT22;3085;49.444;11.054;2023-02-12T10:09:14;7.10;99.90
6110;DHT22;3085;49.444;11.054;2023-02-12T10:11:53;6.30;99.90
6110;DHT22;3085;49.444;11.054;2023-02-12T10:14:49;6.30;99.90
6110;DHT22;3085;49.444;11.054;2023-02-12T10:17:31;6.30;99.90
6110;DHT22;3085;49.444;11.054;2023-02-12T10:20:18;6.40;99.90
6110;DHT22;3085;49.444;11.054;2023-02-12T10:22:56;7.40;99.90
6110;DHT22;3085;49.444;11.054;2023-02-12T10:25:29;6.40;99.90
6110;DHT22;3085;49.444;11.054;2023-02-12T10:28:07;6.50;99.90
6110;DHT22;3085;49.444;11.054;2023-02-12T10:30:42;6.60;99.90
6110;DHT22;3085;49.444;11.054;2023-02-12T10:33:15;6.50;99.90
6110;DHT22;3085;49.444;11.054;2023-02-12T10:35:48;6.60;99.90
6110;DHT22;3085;49.444;11.054;2023-02-12T10:38:19;6.60;99.90
6110;DHT22;3085;49.444;11.054;2023-02-12T10:40:47;6.80;99.90
6110;DHT22;3085;49.444;11.054;2023-02-12T10:43:15;6.70;99.90
6110;DHT22;3085;49.444;11.054;2023-02-12T10:45:43;6.90;99.90
6110;DHT22;3085;49.444;11.054;2023-02-12T10:48:13;6.70;99.90
6110;DHT22;3085;49.444;11.054;2023-02-12T10:50:51;6.80;99.90
6110;DHT22;3085;49.444;11.054;2023-02-12T10:53:24;6.80;99.90
6110;DHT22;3085;49.444;11.054;2023-02-12T10:56:09;6.80;99.90
6110;DHT22;3085;49.444;11.054;2023-02-12T10:58:39;6.80;99.90
6110;DHT22;3085;49.444;11.054;2023-02-12T11:01:18;7.60;99.90
6110;DHT22;3085;49.444;11.054;2023-02-12T11:03:50;6.90;99.90
6110;DHT22;3085;49.444;11.054;2023-02-12T11:06:19;6.90;99.90
6110;DHT22;3085;49.444;11.054;2023-02-12T11:08:48;6.90;99.90
6110;DHT22;3085;49.444;11.054;2023-02-12T11:11:18;6.80;99.90
6110;DHT22;3085;49.444;11.054;2023-02-12T11:13:53;6.80;99.90
6110;DHT22;3085;49.444;11.054;2023-02-12T11:16:28;6.90;99.90
6110;DHT22;3085;49.444;11.054;2023-02-12T11:19:00;6.80;99.90
6110;DHT22;3085;49.444;11.054;2023-02-12T11:21:29;6.80;99.90
6110;DHT22;3085;49.444;11.054;2023-02-12T11:23:57;8.00;99.90
6110;DHT22;3085;49.444;11.054;2023-02-12T11:26:44;6.80;99.90
6110;DHT22;3085;49.444;11.054;2023-02-12T11:29:18;6.80;99.90
6110;DHT22;3085;49.444;11.054;2023-02-12T11:31:59;6.90;99.90
6110;DHT22;3085;49.444;11.054;2023-02-12T11:34:26;7.70;99.90
6110;DHT22;3085;49.444;11.054;2023-02-12T11:36:55;8.00;99.90
6110;DHT22;3085;49.444;11.054;2023-02-12T11:39:25;6.90;99.90
6110;DHT22;3085;49.444;11.054;2023-02-12T11:41:54;7.00;99.90
6110;DHT22;3085;49.444;11.054;2023-02-12T11:44:27;7.00;99.90
6110;DHT22;3085;49.444;11.054;2023-02-12T11:46:58;6.90;99.90
6110;DHT22;3085;49.444;11.054;2023-02-12T11:49:29;5.70;99.90
6110;DHT22;3085;49.444;11.054;2023-02-12T11:52:01;7.00;99.90
6110;DHT22;3085;49.444;11.054;2023-02-12T11:54:31;8.00;99.90
6110;DHT22;3085;49.444;11.054;2023-02-12T11:56:59;5.80;99.90
6110;DHT22;3085;49.444;11.054;2023-02-12T11:59:33;6.70;99.90
6110;DHT22;3085;49.444;11.054;2023-02-12T12:02:13;6.90;99.90
6110;DHT22;3085;49.444;11.054;2023-02-12T12:04:42;6.70;99.90
6110;DHT22;3085;49.444;11.054;2023-02-12T12:07:13;6.80;99.90
6110;DHT22;3085;49.444;11.054;2023-02-12T12:09:48;6.80;99.90
6110;DHT22;3085;49.444;11.054;2023-02-12T12:12:24;8.00;99.90
6110;DHT22;3085;49.444;11.054;2023-02-12T12:14:59;6.80;99.90
6110;DHT22;3085;49.444;11.054;2023-02-12T12:17:51;7.90;99.90
6110;DHT22;3085;49.444;11.054;2023-02-12T12:20:53;6.80;99.90
6110;DHT22;3085;49.444;11.054;2023-02-12T12:23:29;8.30;99.90
6110;DHT22;3085;49.444;11.054;2023-02-12T12:26:03;8.20;99.90
6110;DHT22;3085;49.444;11.054;2023-02-12T12:28:34;7.00;99.90
6110;DHT22;3085;49.444;11.054;2023-02-12T12:31:06;7.00;99.90
6110;DHT22;3085;49.444;11.054;2023-02-12T12:33:42;8.00;99.90
6110;DHT22;3085;49.444;11.054;2023-02-12T12:36:36;5.50;99.90
6110;DHT22;3085;49.444;11.054;2023-02-12T12:39:16;6.90;99.90
6110;DHT22;3085;49.444;11.054;2023-02-12T12:42:12;7.00;99.90
6110;DHT22;3085;49.444;11.054;2023-02-12T12:44:58;6.50;99.90
6110;DHT22;3085;49.444;11.054;2023-02-12T12:47:35;7.10;99.90
6110;DHT22;3085;49.444;11.054;2023-02-12T12:50:23;7.20;99.90
6110;DHT22;3085;49.444;11.054;2023-02-12T12:53:02;8.30;99.90
6110;DHT22;3085;49.444;11.054;2023-02-12T12:55:55;7.00;99.90
6110;DHT22;3085;49.444;11.054;2023-02-12T12:58:33;5.60;99.90
6110;DHT22;3085;49.444;11.054;2023-02-12T13:01:17;7.20;99.90
6110;DHT22;3085;49.444;11.054;2023-02-12T13:06:57;5.90;99.90
6110;DHT22;3085;49.444;11.054;2023-02-12T13:09:48;7.40;99.90
6110;DHT22;3085;49.444;11.054;2023-02-12T13:12:33;7.40;99.90
6110;DHT22;3085;49.444;11.054;2023-02-12T13:15:14;7.50;99.90
6110;DHT22;3085;49.444;11.054;2023-02-12T13:17:48;7.60;99.90
6110;DHT22;3085;49.444;11.054;2023-02-12T13:20:22;7.60;99.90
6110;DHT22;3085;49.444;11.054;2023-02-12T13:23:00;8.50;99.90
6110;DHT22;3085;49.444;11.054;2023-02-12T13:25:33;7.50;99.90
6110;DHT22;3085;49.444;11.054;2023-02-12T13:28:13;7.60;99.90
6110;DHT22;3085;49.444;11.054;2023-02-12T13:30:54;7.70;99.90
6110;DHT22;3085;49.444;11.054;2023-02-12T13:33:24;7.80;99.90
6110;DHT22;3085;49.444;11.054;2023-02-12T13:35:56;7.80;99.90
6110;DHT22;3085;49.444;11.054;2023-02-12T13:38:29;8.50;99.90
6110;DHT22;3085;49.444;11.054;2023-02-12T13:41:00;8.60;99.90
6110;DHT22;3085;49.444;11.054;2023-02-12T13:43:39;7.90;99.90
6110;DHT22;3085;49.444;11.054;2023-02-12T13:46:13;7.80;99.90
6110;DHT22;3085;49.444;11.054;2023-02-12T13:48:49;8.70;99.90
6110;DHT22;3085;49.444;11.054;2023-02-12T13:51:28;7.80;99.90
6110;DHT22;3085;49.444;11.054;2023-02-12T13:54:09;7.90;99.90
6110;DHT22;3085;49.444;11.054;2023-02-12T13:56:41;7.90;99.90
6110;DHT22;3085;49.444;11.054;2023-02-12T13:59:43;8.00;99.90
6110;DHT22;3085;49.444;11.054;2023-02-12T14:05:29;7.90;99.90
6110;DHT22;3085;49.444;11.054;2023-02-12T14:08:02;8.00;99.90
6110;DHT22;3085;49.444;11.054;2023-02-12T14:10:35;8.20;99.90
6110;DHT22;3085;49.444;11.054;2023-02-12T14:13:18;8.00;99.90
6110;DHT22;3085;49.444;11.054;2023-02-12T14:15:54;8.00;99.90
6110;DHT22;3085;49.444;11.054;2023-02-12T14:18:32;7.90;99.90
6110;DHT22;3085;49.444;11.054;2023-02-12T14:24:48;7.90;99.90
6110;DHT22;3085;49.444;11.054;2023-02-12T14:27:36;9.30;99.90
6110;DHT22;3085;49.444;11.054;2023-02-12T14:30:27;8.40;99.90
6110;DHT22;3085;49.444;11.054;2023-02-12T14:33:10;9.10;99.90
6110;DHT22;3085;49.444;11.054;2023-02-12T14:35:46;7.70;99.90
6110;DHT22;3085;49.444;11.054;2023-02-12T14:41:36;8.40;99.90
6110;DHT22;3085;49.444;11.054;2023-02-12T14:50:43;8.00;99.90
6110;DHT22;3085;49.444;11.054;2023-02-12T14:53:33;8.60;99.90
6110;DHT22;3085;49.444;11.054;2023-02-12T14:56:02;9.30;99.90
6110;DHT22;3085;49.444;11.054;2023-02-12T14:58:31;9.60;99.90
6110;DHT22;3085;49.444;11.054;2023-02-12T15:01:00;10.00;99.90
6110;DHT22;3085;49.444;11.054;2023-02-12T15:03:33;10.30;99.90
6110;DHT22;3085;49.444;11.054;2023-02-12T15:06:12;10.60;99.90
6110;DHT22;3085;49.444;11.054;2023-02-12T15:08:48;10.50;99.90
6110;DHT22;3085;49.444;11.054;2023-02-12T15:11:27;9.90;99.90
6110;DHT22;3085;49.444;11.054;2023-02-12T15:14:01;9.10;99.90
6110;DHT22;3085;49.444;11.054;2023-02-12T15:16:39;9.30;99.90
6110;DHT22;3085;49.444;11.054;2023-02-12T15:19:19;10.60;99.90
6110;DHT22;3085;49.444;11.054;2023-02-12T15:21:50;9.20;99.90
6110;DHT22;3085;49.444;11.054;2023-02-12T15:24:21;9.10;99.90
6110;DHT22;3085;49.444;11.054;2023-02-12T15:26:51;9.40;99.90
6110;DHT22;3085;49.444;11.054;2023-02-12T15:29:21;8.40;99.90
6110;DHT22;3085;49.444;11.054;2023-02-12T15:31:50;8.20;99.90
6110;DHT22;3085;49.444;11.054;2023-02-12T15:34:22;8.00;99.90
6110;DHT22;3085;49.444;11.054;2023-02-12T15:36:57;7.10;99.90
6110;DHT22;3085;49.444;11.054;2023-02-12T15:39:26;6.50;99.90
6110;DHT22;3085;49.444;11.054;2023-02-12T15:41:53;8.00;99.90
6110;DHT22;3085;49.444;11.054;2023-02-12T15:44:23;8.10;99.90
6110;DHT22;3085;49.444;11.054;2023-02-12T15:46:55;8.10;99.90
6110;DHT22;3085;49.444;11.054;2023-02-12T15:49:27;8.20;99.90
6110;DHT22;3085;49.444;11.054;2023-02-12T15:51:56;8.10;99.90
6110;DHT22;3085;49.444;11.054;2023-02-12T15:54:24;8.00;99.90
6110;DHT22;3085;49.444;11.054;2023-02-12T15:56:53;8.20;99.90
6110;DHT22;3085;49.444;11.054;2023-02-12T15:59:22;7.90;99.90
6110;DHT22;3085;49.444;11.054;2023-02-12T16:01:56;9.70;99.90
6110;DHT22;3085;49.444;11.054;2023-02-12T16:04:25;7.80;99.90
6110;DHT22;3085;49.444;11.054;2023-02-12T16:06:55;7.90;99.90
6110;DHT22;3085;49.444;11.054;2023-02-12T16:09:33;6.80;99.90
6110;DHT22;3085;49.444;11.054;2023-02-12T16:12:03;6.90;99.90
6110;DHT22;3085;49.444;11.054;2023-02-12T16:14:41;6.60;99.90
6110;DHT22;3085;49.444;11.054;2023-02-12T16:17:20;7.80;99.90
6110;DHT22;3085;49.444;11.054;2023-02-12T16:19:55;8.60;99.90
6110;DHT22;3085;49.444;11.054;2023-02-12T16:22:27;7.70;99.90
6110;DHT22;3085;49.444;11.054;2023-02-12T16:24:59;9.20;99.90
6110;DHT22;3085;49.444;11.054;2023-02-12T16:27:31;8.40;99.90
6110;DHT22;3085;49.444;11.054;2023-02-12T16:30:04;7.60;99.90
6110;DHT22;3085;49.444;11.054;2023-02-12T16:32:37;7.30;99.90
6110;DHT22;3085;49.444;11.054;2023-02-12T16:35:23;7.20;99.90
6110;DHT22;3085;49.444;11.054;2023-02-12T16:37:54;7.30;99.90
6110;DHT22;3085;49.444;11.054;2023-02-12T16:40:32;7.30;99.90
6110;DHT22;3085;49.444;11.054;2023-02-12T16:43:24;7.10;99.90
6110;DHT22;3085;49.444;11.054;2023-02-12T16:46:02;7.50;99.90
6110;DHT22;3085;49.444;11.054;2023-02-12T16:48:29;7.10;99.90
6110;DHT22;3085;49.444;11.054;2023-02-12T16:50:58;7.00;99.90
6110;DHT22;3085;49.444;11.054;2023-02-12T16:53:39;6.90;99.90
6110;DHT22;3085;49.444;11.054;2023-02-12T16:56:14;6.90;99.90
6110;DHT22;3085;49.444;11.054;2023-02-12T16:58:43;6.90;99.90